sensor_id;sensor_type;location;lat;lon;timestamp;temperature;humidity
21459;DHT22;10891;49.350;19.386;2022-08-04T00:02:32;13.70;99.90
21459;DHT22;10891;49.350;19.386;2022-08-04T00:05:04;13.70;99.90
21459;DHT22;10891;49.350;19.386;2022-08-04T00:07:37;13.60;99.90
21459;DHT22;10891;49.350;19.386;2022-08-04T00:10:07;13.60;99.90
21459;DHT22;10891;49.350;19.386;2022-08-04T00:12:36;13.50;99.90
21459;DHT22;10891;49.350;19.386;2022-08-04T00:15:05;13.50;99.90
21459;DHT22;10891;49.350;19.386;2022-08-04T00:17:38;13.50;99.90
21459;DHT22;10891;49.350;19.386;2022-08-04T00:20:07;13.50;99.90
21459;DHT22;10891;49.350;19.386;2022-08-04T00:22:38;13.50;99.90
21459;DHT22;10891;49.350;19.386;2022-08-04T00:25:07;13.50;99.90
21459;DHT22;10891;49.350;19.386;2022-08-04T00:27:34;13.60;99.90
21459;DHT22;10891;49.350;19.386;2022-08-04T00:30:02;13.50;99.90
21459;DHT22;10891;49.350;19.386;2022-08-04T00:32:30;13.40;99.90
21459;DHT22;10891;49.350;19.386;2022-08-04T00:34:57;13.40;99.90
21459;DHT22;10891;49.350;19.386;2022-08-04T00:37:25;13.30;99.90
21459;DHT22;10891;49.350;19.386;2022-08-04T00:39:53;13.20;99.90
21459;DHT22;10891;49.350;19.386;2022-08-04T00:42:33;13.20;99.90
21459;DHT22;10891;49.350;19.386;2022-08-04T00:45:27;13.10;99.90
21459;DHT22;10891;49.350;19.386;2022-08-04T00:48:08;13.10;99.90
21459;DHT22;10891;49.350;19.386;2022-08-04T00:50:44;13.10;99.90
21459;DHT22;10891;49.350;19.386;2022-08-04T00:53:23;13.10;99.90
21459;DHT22;10891;49.350;19.386;2022-08-04T00:59:10;13.10;99.90
21459;DHT22;10891;49.350;19.386;2022-08-04T01:01:50;13.10;99.90
21459;DHT22;10891;49.350;19.386;2022-08-04T01:04:28;13.00;99.90
21459;DHT22;10891;49.350;19.386;2022-08-04T01:07:26;13.00;99.90
21459;DHT22;10891;49.350;19.386;2022-08-04T01:10:03;13.00;99.90
21459;DHT22;10891;49.350;19.386;2022-08-04T01:13:06;13.00;99.90
21459;DHT22;10891;49.350;19.386;2022-08-04T01:15:39;13.00;99.90
21459;DHT22;10891;49.350;19.386;2022-08-04T01:18:19;13.00;99.90
21459;DHT22;10891;49.350;19.386;2022-08-04T01:20:53;13.00;99.90
21459;DHT22;10891;49.350;19.386;2022-08-04T01:23:49;12.90;99.90
21459;DHT22;10891;49.350;19.386;2022-08-04T01:26:49;12.90;99.90
21459;DHT22;10891;49.350;19.386;2022-08-04T01:29:20;12.90;99.90
21459;DHT22;10891;49.350;19.386;2022-08-04T01:32:00;12.80;99.90
21459;DHT22;10891;49.350;19.386;2022-08-04T01:34:30;12.80;99.90
21459;DHT22;10891;49.350;19.386;2022-08-04T01:37:05;12.80;99.90
21459;DHT22;10891;49.350;19.386;2022-08-04T01:39:35;12.70;99.90
21459;DHT22;10891;49.350;19.386;2022-08-04T01:42:07;12.70;99.90
21459;DHT22;10891;49.350;19.386;2022-08-04T01:44:39;12.60;99.90
21459;DHT22;10891;49.350;19.386;2022-08-04T01:47:08;12.60;99.90
21459;DHT22;10891;49.350;19.386;2022-08-04T01:49:36;12.60;99.90
21459;DHT22;10891;49.350;19.386;2022-08-04T01:52:06;12.60;99.90
21459;DHT22;10891;49.350;19.386;2022-08-04T01:54:37;12.60;99.90
21459;DHT22;10891;49.350;19.386;2022-08-04T01:57:09;12.60;99.90
21459;DHT22;10891;49.350;19.386;2022-08-04T01:59:37;12.60;99.90
21459;DHT22;10891;49.350;19.386;2022-08-04T02:02:05;12.60;99.90
21459;DHT22;10891;49.350;19.386;2022-08-04T02:04:34;12.60;99.90
21459;DHT22;10891;49.350;19.386;2022-08-04T02:07:16;12.70;99.90
21459;DHT22;10891;49.350;19.386;2022-08-04T02:09:50;12.70;99.90
21459;DHT22;10891;49.350;19.386;2022-08-04T02:12:24;12.60;99.90
21459;DHT22;10891;49.350;19.386;2022-08-04T02:14:58;12.60;99.90
21459;DHT22;10891;49.350;19.386;2022-08-04T02:17:28;12.60;99.90
21459;DHT22;10891;49.350;19.386;2022-08-04T02:20:05;12.50;99.90
21459;DHT22;10891;49.350;19.386;2022-08-04T02:22:33;12.50;99.90
21459;DHT22;10891;49.350;19.386;2022-08-04T02:25:06;12.50;99.90
21459;DHT22;10891;49.350;19.386;2022-08-04T02:27:54;12.50;99.90
21459;DHT22;10891;49.350;19.386;2022-08-04T02:30:26;12.40;99.90
21459;DHT22;10891;49.350;19.386;2022-08-04T02:32:56;12.40;99.90
21459;DHT22;10891;49.350;19.386;2022-08-04T02:35:27;12.40;99.90
21459;DHT22;10891;49.350;19.386;2022-08-04T02:38:04;12.30;99.90
21459;DHT22;10891;49.350;19.386;2022-08-04T02:40:31;12.30;99.90
21459;DHT22;10891;49.350;19.386;2022-08-04T02:43:03;12.10;99.90
21459;DHT22;10891;49.350;19.386;2022-08-04T02:45:35;12.00;99.90
21459;DHT22;10891;49.350;19.386;2022-08-04T02:48:03;12.00;99.90
21459;DHT22;10891;49.350;19.386;2022-08-04T02:50:33;12.00;99.90
21459;DHT22;10891;49.350;19.386;2022-08-04T02:53:02;12.00;99.90
21459;DHT22;10891;49.350;19.386;2022-08-04T02:55:30;12.10;99.90
21459;DHT22;10891;49.350;19.386;2022-08-04T02:58:01;12.00;99.90
21459;DHT22;10891;49.350;19.386;2022-08-04T03:00:30;12.00;99.90
21459;DHT22;10891;49.350;19.386;2022-08-04T03:03:11;11.90;99.90
21459;DHT22;10891;49.350;19.386;2022-08-04T03:06:01;11.90;99.90
21459;DHT22;10891;49.350;19.386;2022-08-04T03:08:46;11.90;99.90
21459;DHT22;10891;49.350;19.386;2022-08-04T03:11:34;11.90;99.90
21459;DHT22;10891;49.350;19.386;2022-08-04T03:14:24;11.90;99.90
21459;DHT22;10891;49.350;19.386;2022-08-04T03:20:21;11.90;99.90
21459;DHT22;10891;49.350;19.386;2022-08-04T03:23:05;11.90;99.90
21459;DHT22;10891;49.350;19.386;2022-08-04T03:29:16;11.80;99.90
21459;DHT22;10891;49.350;19.386;2022-08-04T03:32:08;11.80;99.90
21459;DHT22;10891;49.350;19.386;2022-08-04T03:35:01;11.90;99.90
21459;DHT22;10891;49.350;19.386;2022-08-04T03:37:43;11.90;99.90
21459;DHT22;10891;49.350;19.386;2022-08-04T03:40:39;12.00;99.90
21459;DHT22;10891;49.350;19.386;2022-08-04T03:43:46;12.00;99.90
21459;DHT22;10891;49.350;19.386;2022-08-04T03:46:42;12.10;99.90
21459;DHT22;10891;49.350;19.386;2022-08-04T03:49:39;12.10;99.90
21459;DHT22;10891;49.350;19.386;2022-08-04T03:52:14;12.20;99.90
21459;DHT22;10891;49.350;19.386;2022-08-04T03:55:35;12.30;99.90
21459;DHT22;10891;49.350;19.386;2022-08-04T03:58:38;12.40;99.90
21459;DHT22;10891;49.350;19.386;2022-08-04T04:01:17;12.50;99.90
21459;DHT22;10891;49.350;19.386;2022-08-04T04:04:16;12.60;99.90
21459;DHT22;10891;49.350;19.386;2022-08-04T04:07:19;12.90;99.90
21459;DHT22;10891;49.350;19.386;2022-08-04T04:10:07;13.80;99.90
21459;DHT22;10891;49.350;19.386;2022-08-04T04:12:51;14.50;99.90
21459;DHT22;10891;49.350;19.386;2022-08-04T04:15:37;15.10;99.90
21459;DHT22;10891;49.350;19.386;2022-08-04T04:18:15;16.10;99.90
21459;DHT22;10891;49.350;19.386;2022-08-04T04:20:57;17.50;99.90
21459;DHT22;10891;49.350;19.386;2022-08-04T04:23:47;17.30;99.90
21459;DHT22;10891;49.350;19.386;2022-08-04T04:26:36;16.60;99.90
21459;DHT22;10891;49.350;19.386;2022-08-04T04:29:16;16.00;99.90
21459;DHT22;10891;49.350;19.386;2022-08-04T04:31:58;15.70;99.90
21459;DHT22;10891;49.350;19.386;2022-08-04T04:34:39;15.70;99.90
21459;DHT22;10891;49.350;19.386;2022-08-04T04:37:46;16.70;99.90
21459;DHT22;10891;49.350;19.386;2022-08-04T04:40:31;19.20;99.90
21459;DHT22;10891;49.350;19.386;2022-08-04T04:43:12;21.20;99.90
21459;DHT22;10891;49.350;19.386;2022-08-04T04:45:52;22.50;99.90
21459;DHT22;10891;49.350;19.386;2022-08-04T04:48:28;23.10;99.90
21459;DHT22;10891;49.350;19.386;2022-08-04T04:51:05;23.40;98.30
21459;DHT22;10891;49.350;19.386;2022-08-04T04:53:41;24.00;97.50
21459;DHT22;10891;49.350;19.386;2022-08-04T04:56:18;24.60;96.30
21459;DHT22;10891;49.350;19.386;2022-08-04T04:58:50;24.90;95.40
21459;DHT22;10891;49.350;19.386;2022-08-04T05:01:51;25.50;95.00
21459;DHT22;10891;49.350;19.386;2022-08-04T05:04:46;26.00;94.10
21459;DHT22;10891;49.350;19.386;2022-08-04T05:10:32;27.10;92.60
21459;DHT22;10891;49.350;19.386;2022-08-04T05:13:15;27.60;91.60
21459;DHT22;10891;49.350;19.386;2022-08-04T05:15:46;27.70;91.60
21459;DHT22;10891;49.350;19.386;2022-08-04T05:18:20;27.60;91.50
21459;DHT22;10891;49.350;19.386;2022-08-04T05:20:52;26.70;92.60
21459;DHT22;10891;49.350;19.386;2022-08-04T05:23:25;27.10;92.20
21459;DHT22;10891;49.350;19.386;2022-08-04T05:25:55;27.80;91.80
21459;DHT22;10891;49.350;19.386;2022-08-04T05:28:27;28.20;91.00
21459;DHT22;10891;49.350;19.386;2022-08-04T05:30:59;28.30;91.00
21459;DHT22;10891;49.350;19.386;2022-08-04T05:33:33;28.80;90.50
21459;DHT22;10891;49.350;19.386;2022-08-04T05:36:05;29.30;90.10
21459;DHT22;10891;49.350;19.386;2022-08-04T05:38:36;29.40;89.30
21459;DHT22;10891;49.350;19.386;2022-08-04T05:41:07;29.70;89.20
21459;DHT22;10891;49.350;19.386;2022-08-04T05:43:36;29.90;88.80
21459;DHT22;10891;49.350;19.386;2022-08-04T05:46:05;30.10;87.50
21459;DHT22;10891;49.350;19.386;2022-08-04T05:48:32;30.40;87.50
21459;DHT22;10891;49.350;19.386;2022-08-04T05:51:00;30.60;87.30
21459;DHT22;10891;49.350;19.386;2022-08-04T05:53:29;30.70;86.20
21459;DHT22;10891;49.350;19.386;2022-08-04T05:55:57;30.70;85.70
21459;DHT22;10891;49.350;19.386;2022-08-04T05:58:28;30.60;87.20
21459;DHT22;10891;49.350;19.386;2022-08-04T06:00:58;30.70;86.60
21459;DHT22;10891;49.350;19.386;2022-08-04T06:03:28;29.80;88.20
21459;DHT22;10891;49.350;19.386;2022-08-04T06:05:56;28.70;90.20
21459;DHT22;10891;49.350;19.386;2022-08-04T06:08:23;29.60;90.10
21459;DHT22;10891;49.350;19.386;2022-08-04T06:10:52;30.00;88.60
21459;DHT22;10891;49.350;19.386;2022-08-04T06:13:25;30.30;87.70
21459;DHT22;10891;49.350;19.386;2022-08-04T06:15:56;30.50;88.60
21459;DHT22;10891;49.350;19.386;2022-08-04T06:18:27;30.60;87.00
21459;DHT22;10891;49.350;19.386;2022-08-04T06:20:56;30.60;86.50
21459;DHT22;10891;49.350;19.386;2022-08-04T06:23:29;29.50;88.20
21459;DHT22;10891;49.350;19.386;2022-08-04T06:25:59;29.30;90.30
21459;DHT22;10891;49.350;19.386;2022-08-04T06:28:26;28.90;90.20
21459;DHT22;10891;49.350;19.386;2022-08-04T06:30:54;27.70;91.40
21459;DHT22;10891;49.350;19.386;2022-08-04T06:33:28;27.40;92.40
21459;DHT22;10891;49.350;19.386;2022-08-04T06:36:01;27.40;92.80
21459;DHT22;10891;49.350;19.386;2022-08-04T06:38:29;27.80;92.80
21459;DHT22;10891;49.350;19.386;2022-08-04T06:40:57;28.10;92.80
21459;DHT22;10891;49.350;19.386;2022-08-04T06:43:25;28.30;92.90
21459;DHT22;10891;49.350;19.386;2022-08-04T06:45:54;27.90;92.60
21459;DHT22;10891;49.350;19.386;2022-08-04T06:48:21;27.70;92.90
21459;DHT22;10891;49.350;19.386;2022-08-04T06:50:52;27.70;92.70
21459;DHT22;10891;49.350;19.386;2022-08-04T06:53:19;27.40;93.10
21459;DHT22;10891;49.350;19.386;2022-08-04T06:55:47;28.50;92.50
21459;DHT22;10891;49.350;19.386;2022-08-04T06:58:15;28.10;92.40
21459;DHT22;10891;49.350;19.386;2022-08-04T07:00:44;28.40;91.70
21459;DHT22;10891;49.350;19.386;2022-08-04T07:03:12;28.50;91.00
21459;DHT22;10891;49.350;19.386;2022-08-04T07:05:40;28.20;91.40
21459;DHT22;10891;49.350;19.386;2022-08-04T07:08:10;28.30;91.70
21459;DHT22;10891;49.350;19.386;2022-08-04T07:10:38;28.40;92.00
21459;DHT22;10891;49.350;19.386;2022-08-04T07:13:06;28.30;91.90
21459;DHT22;10891;49.350;19.386;2022-08-04T07:15:35;27.30;92.60
21459;DHT22;10891;49.350;19.386;2022-08-04T07:18:02;27.20;93.10
21459;DHT22;10891;49.350;19.386;2022-08-04T07:20:30;26.90;93.50
21459;DHT22;10891;49.350;19.386;2022-08-04T07:22:58;26.90;94.60
21459;DHT22;10891;49.350;19.386;2022-08-04T07:25:27;26.70;93.70
21459;DHT22;10891;49.350;19.386;2022-08-04T07:27:54;26.50;94.70
21459;DHT22;10891;49.350;19.386;2022-08-04T07:30:23;26.40;95.20
21459;DHT22;10891;49.350;19.386;2022-08-04T07:32:52;26.20;95.20
21459;DHT22;10891;49.350;19.386;2022-08-04T07:35:21;26.60;94.50
21459;DHT22;10891;49.350;19.386;2022-08-04T07:37:49;26.10;94.10
21459;DHT22;10891;49.350;19.386;2022-08-04T07:40:16;26.10;94.00
21459;DHT22;10891;49.350;19.386;2022-08-04T07:42:44;25.90;94.20
21459;DHT22;10891;49.350;19.386;2022-08-04T07:45:12;25.70;95.10
21459;DHT22;10891;49.350;19.386;2022-08-04T07:47:42;25.60;95.00
21459;DHT22;10891;49.350;19.386;2022-08-04T07:50:09;25.60;94.80
21459;DHT22;10891;49.350;19.386;2022-08-04T07:52:37;25.40;95.30
21459;DHT22;10891;49.350;19.386;2022-08-04T07:55:05;25.10;96.90
21459;DHT22;10891;49.350;19.386;2022-08-04T07:57:32;24.70;97.40
21459;DHT22;10891;49.350;19.386;2022-08-04T08:00:01;24.30;97.60
21459;DHT22;10891;49.350;19.386;2022-08-04T08:02:28;24.10;98.00
21459;DHT22;10891;49.350;19.386;2022-08-04T08:04:57;24.00;97.40
21459;DHT22;10891;49.350;19.386;2022-08-04T08:07:24;24.00;98.30
21459;DHT22;10891;49.350;19.386;2022-08-04T08:09:51;23.90;98.80
21459;DHT22;10891;49.350;19.386;2022-08-04T08:12:19;24.10;98.80
21459;DHT22;10891;49.350;19.386;2022-08-04T08:14:46;24.00;98.50
21459;DHT22;10891;49.350;19.386;2022-08-04T08:17:14;23.90;97.60
21459;DHT22;10891;49.350;19.386;2022-08-04T08:19:42;23.90;98.50
21459;DHT22;10891;49.350;19.386;2022-08-04T08:22:10;24.00;98.20
21459;DHT22;10891;49.350;19.386;2022-08-04T08:24:37;24.00;97.70
21459;DHT22;10891;49.350;19.386;2022-08-04T08:27:06;24.10;97.40
21459;DHT22;10891;49.350;19.386;2022-08-04T08:29:33;24.40;98.20
21459;DHT22;10891;49.350;19.386;2022-08-04T08:32:01;24.40;98.10
21459;DHT22;10891;49.350;19.386;2022-08-04T08:34:30;24.70;97.70
21459;DHT22;10891;49.350;19.386;2022-08-04T08:37:02;24.70;97.60
21459;DHT22;10891;49.350;19.386;2022-08-04T08:39:37;25.00;96.60
21459;DHT22;10891;49.350;19.386;2022-08-04T08:42:30;25.20;95.70
21459;DHT22;10891;49.350;19.386;2022-08-04T08:45:17;25.50;96.60
21459;DHT22;10891;49.350;19.386;2022-08-04T08:51:04;25.40;96.40
21459;DHT22;10891;49.350;19.386;2022-08-04T08:56:35;25.10;95.60
21459;DHT22;10891;49.350;19.386;2022-08-04T08:59:18;25.10;94.90
21459;DHT22;10891;49.350;19.386;2022-08-04T09:02:01;25.30;95.00
21459;DHT22;10891;49.350;19.386;2022-08-04T09:04:53;25.00;95.80
21459;DHT22;10891;49.350;19.386;2022-08-04T09:07:40;24.80;95.90
21459;DHT22;10891;49.350;19.386;2022-08-04T09:10:16;25.00;96.20
21459;DHT22;10891;49.350;19.386;2022-08-04T09:12:50;25.20;96.20
21459;DHT22;10891;49.350;19.386;2022-08-04T09:15:25;25.10;95.80
21459;DHT22;10891;49.350;19.386;2022-08-04T09:17:58;25.10;93.70
21459;DHT22;10891;49.350;19.386;2022-08-04T09:20:30;25.10;93.70
21459;DHT22;10891;49.350;19.386;2022-08-04T09:23:07;25.20;94.40
21459;DHT22;10891;49.350;19.386;2022-08-04T09:25:40;25.40;93.40
21459;DHT22;10891;49.350;19.386;2022-08-04T09:28:18;25.50;93.90
21459;DHT22;10891;49.350;19.386;2022-08-04T09:30:51;25.40;93.60
21459;DHT22;10891;49.350;19.386;2022-08-04T09:33:27;25.60;93.70
21459;DHT22;10891;49.350;19.386;2022-08-04T09:36:02;25.70;92.90
21459;DHT22;10891;49.350;19.386;2022-08-04T09:38:37;25.70;93.00
21459;DHT22;10891;49.350;19.386;2022-08-04T09:41:15;25.60;93.60
21459;DHT22;10891;49.350;19.386;2022-08-04T09:43:52;25.70;93.60
21459;DHT22;10891;49.350;19.386;2022-08-04T09:46:25;25.80;94.00
21459;DHT22;10891;49.350;19.386;2022-08-04T09:48:55;25.80;92.50
21459;DHT22;10891;49.350;19.386;2022-08-04T09:51:37;25.90;92.80
21459;DHT22;10891;49.350;19.386;2022-08-04T09:54:13;26.00;92.10
21459;DHT22;10891;49.350;19.386;2022-08-04T09:56:51;26.00;91.90
21459;DHT22;10891;49.350;19.386;2022-08-04T09:59:24;26.30;92.50
21459;DHT22;10891;49.350;19.386;2022-08-04T10:01:55;26.20;92.50
21459;DHT22;10891;49.350;19.386;2022-08-04T10:04:23;26.30;92.20
21459;DHT22;10891;49.350;19.386;2022-08-04T10:07:13;26.10;91.70
21459;DHT22;10891;49.350;19.386;2022-08-04T10:10:02;26.20;91.80
21459;DHT22;10891;49.350;19.386;2022-08-04T10:12:40;26.20;92.50
21459;DHT22;10891;49.350;19.386;2022-08-04T10:15:13;26.20;91.20
21459;DHT22;10891;49.350;19.386;2022-08-04T10:17:57;26.30;91.00
21459;DHT22;10891;49.350;19.386;2022-08-04T10:23:37;26.90;90.20
21459;DHT22;10891;49.350;19.386;2022-08-04T10:26:24;26.90;91.20
21459;DHT22;10891;49.350;19.386;2022-08-04T10:28:55;27.10;92.30
21459;DHT22;10891;49.350;19.386;2022-08-04T10:31:28;26.70;92.40
21459;DHT22;10891;49.350;19.386;2022-08-04T10:34:00;26.80;91.60
21459;DHT22;10891;49.350;19.386;2022-08-04T10:36:40;26.80;92.50
21459;DHT22;10891;49.350;19.386;2022-08-04T10:39:14;27.10;92.00
21459;DHT22;10891;49.350;19.386;2022-08-04T10:41:51;27.10;91.20
21459;DHT22;10891;49.350;19.386;2022-08-04T10:44:27;27.00;91.70
21459;DHT22;10891;49.350;19.386;2022-08-04T10:46:59;26.90;92.40
21459;DHT22;10891;49.350;19.386;2022-08-04T10:49:34;26.90;93.40
21459;DHT22;10891;49.350;19.386;2022-08-04T10:52:06;27.00;92.60
21459;DHT22;10891;49.350;19.386;2022-08-04T10:54:40;27.10;91.00
21459;DHT22;10891;49.350;19.386;2022-08-04T10:57:18;27.30;88.80
21459;DHT22;10891;49.350;19.386;2022-08-04T10:59:53;27.10;90.50
21459;DHT22;10891;49.350;19.386;2022-08-04T11:02:29;26.90;92.00
21459;DHT22;10891;49.350;19.386;2022-08-04T11:05:04;27.10;91.10
21459;DHT22;10891;49.350;19.386;2022-08-04T11:07:33;27.20;90.20
21459;DHT22;10891;49.350;19.386;2022-08-04T11:10:02;27.30;91.20
21459;DHT22;10891;49.350;19.386;2022-08-04T11:12:31;27.20;90.40
21459;DHT22;10891;49.350;19.386;2022-08-04T11:15:02;27.10;89.60
21459;DHT22;10891;49.350;19.386;2022-08-04T11:17:33;27.20;90.50
21459;DHT22;10891;49.350;19.386;2022-08-04T11:20:11;27.40;90.50
21459;DHT22;10891;49.350;19.386;2022-08-04T11:22:43;27.30;90.10
21459;DHT22;10891;49.350;19.386;2022-08-04T11:25:18;27.30;89.40
21459;DHT22;10891;49.350;19.386;2022-08-04T11:27:55;27.30;89.00
21459;DHT22;10891;49.350;19.386;2022-08-04T11:30:30;27.70;88.70
21459;DHT22;10891;49.350;19.386;2022-08-04T11:33:08;27.90;87.60
21459;DHT22;10891;49.350;19.386;2022-08-04T11:35:43;28.10;85.20
21459;DHT22;10891;49.350;19.386;2022-08-04T11:38:20;28.20;88.10
21459;DHT22;10891;49.350;19.386;2022-08-04T11:40:53;28.40;87.50
21459;DHT22;10891;49.350;19.386;2022-08-04T11:43:28;28.10;86.70
21459;DHT22;10891;49.350;19.386;2022-08-04T11:46:01;28.00;89.30
21459;DHT22;10891;49.350;19.386;2022-08-04T11:48:31;27.90;85.40
21459;DHT22;10891;49.350;19.386;2022-08-04T11:51:00;27.90;87.40
21459;DHT22;10891;49.350;19.386;2022-08-04T11:53:31;27.90;88.10
21459;DHT22;10891;49.350;19.386;2022-08-04T11:56:02;27.60;85.80
21459;DHT22;10891;49.350;19.386;2022-08-04T11:58:32;27.70;86.30
21459;DHT22;10891;49.350;19.386;2022-08-04T12:01:09;28.00;88.00
21459;DHT22;10891;49.350;19.386;2022-08-04T12:03:45;28.10;87.00
21459;DHT22;10891;49.350;19.386;2022-08-04T12:06:18;28.00;87.30
21459;DHT22;10891;49.350;19.386;2022-08-04T12:08:58;27.90;87.60
21459;DHT22;10891;49.350;19.386;2022-08-04T12:11:42;27.90;89.50
21459;DHT22;10891;49.350;19.386;2022-08-04T12:14:25;27.90;86.50
21459;DHT22;10891;49.350;19.386;2022-08-04T12:16:57;28.20;87.90
21459;DHT22;10891;49.350;19.386;2022-08-04T12:19:30;28.10;87.70
21459;DHT22;10891;49.350;19.386;2022-08-04T12:22:02;28.00;85.80
21459;DHT22;10891;49.350;19.386;2022-08-04T12:24:33;28.00;88.90
21459;DHT22;10891;49.350;19.386;2022-08-04T12:27:06;28.10;86.60
21459;DHT22;10891;49.350;19.386;2022-08-04T12:29:36;28.10;86.20
21459;DHT22;10891;49.350;19.386;2022-08-04T12:32:15;28.20;89.30
21459;DHT22;10891;49.350;19.386;2022-08-04T12:34:47;28.10;88.60
21459;DHT22;10891;49.350;19.386;2022-08-04T12:37:21;28.30;87.80
21459;DHT22;10891;49.350;19.386;2022-08-04T12:39:52;28.20;87.00
21459;DHT22;10891;49.350;19.386;2022-08-04T12:42:23;28.20;86.20
21459;DHT22;10891;49.350;19.386;2022-08-04T12:44:56;28.00;87.80
21459;DHT22;10891;49.350;19.386;2022-08-04T12:47:26;28.00;87.20
21459;DHT22;10891;49.350;19.386;2022-08-04T12:49:58;28.50;87.60
21459;DHT22;10891;49.350;19.386;2022-08-04T12:52:26;28.70;87.80
21459;DHT22;10891;49.350;19.386;2022-08-04T12:54:54;28.60;88.10
21459;DHT22;10891;49.350;19.386;2022-08-04T12:57:23;28.60;89.00
21459;DHT22;10891;49.350;19.386;2022-08-04T12:59:50;28.50;88.00
21459;DHT22;10891;49.350;19.386;2022-08-04T13:02:26;28.50;88.20
21459;DHT22;10891;49.350;19.386;2022-08-04T13:04:59;28.50;88.00
21459;DHT22;10891;49.350;19.386;2022-08-04T13:07:27;28.60;87.20
21459;DHT22;10891;49.350;19.386;2022-08-04T13:10:05;28.60;88.60
21459;DHT22;10891;49.350;19.386;2022-08-04T13:12:37;28.60;87.10
21459;DHT22;10891;49.350;19.386;2022-08-04T13:15:09;28.70;87.80
21459;DHT22;10891;49.350;19.386;2022-08-04T13:17:48;28.80;87.40
21459;DHT22;10891;49.350;19.386;2022-08-04T13:20:17;28.70;87.50
21459;DHT22;10891;49.350;19.386;2022-08-04T13:22:49;28.70;86.60
21459;DHT22;10891;49.350;19.386;2022-08-04T13:25:17;28.50;87.10
21459;DHT22;10891;49.350;19.386;2022-08-04T13:27:44;28.50;86.10
21459;DHT22;10891;49.350;19.386;2022-08-04T13:30:17;28.70;86.80
21459;DHT22;10891;49.350;19.386;2022-08-04T13:32:45;28.90;87.30
21459;DHT22;10891;49.350;19.386;2022-08-04T13:35:13;28.70;85.40
21459;DHT22;10891;49.350;19.386;2022-08-04T13:37:41;28.70;84.60
21459;DHT22;10891;49.350;19.386;2022-08-04T13:40:14;28.70;86.50
21459;DHT22;10891;49.350;19.386;2022-08-04T13:42:46;28.70;86.60
21459;DHT22;10891;49.350;19.386;2022-08-04T13:45:14;28.80;86.00
21459;DHT22;10891;49.350;19.386;2022-08-04T13:47:48;28.90;86.60
21459;DHT22;10891;49.350;19.386;2022-08-04T13:50:19;28.80;83.70
21459;DHT22;10891;49.350;19.386;2022-08-04T13:52:51;28.80;84.00
21459;DHT22;10891;49.350;19.386;2022-08-04T13:55:21;28.80;84.10
21459;DHT22;10891;49.350;19.386;2022-08-04T13:57:49;28.80;84.10
21459;DHT22;10891;49.350;19.386;2022-08-04T14:00:18;29.00;83.40
21459;DHT22;10891;49.350;19.386;2022-08-04T14:02:49;29.20;82.90
21459;DHT22;10891;49.350;19.386;2022-08-04T14:05:25;29.30;85.60
21459;DHT22;10891;49.350;19.386;2022-08-04T14:07:54;29.30;85.50
21459;DHT22;10891;49.350;19.386;2022-08-04T14:10:22;29.10;87.00
21459;DHT22;10891;49.350;19.386;2022-08-04T14:12:51;28.90;84.40
21459;DHT22;10891;49.350;19.386;2022-08-04T14:15:45;29.20;86.40
21459;DHT22;10891;49.350;19.386;2022-08-04T14:18:21;29.10;85.30
21459;DHT22;10891;49.350;19.386;2022-08-04T14:21:04;29.30;83.40
21459;DHT22;10891;49.350;19.386;2022-08-04T14:23:43;29.30;84.70
21459;DHT22;10891;49.350;19.386;2022-08-04T14:26:21;29.00;86.20
21459;DHT22;10891;49.350;19.386;2022-08-04T14:28:50;29.10;84.10
21459;DHT22;10891;49.350;19.386;2022-08-04T14:31:19;28.90;83.40
21459;DHT22;10891;49.350;19.386;2022-08-04T14:33:50;29.00;83.60
21459;DHT22;10891;49.350;19.386;2022-08-04T14:36:18;29.20;83.20
21459;DHT22;10891;49.350;19.386;2022-08-04T14:38:48;29.40;85.90
21459;DHT22;10891;49.350;19.386;2022-08-04T14:41:17;29.20;82.30
21459;DHT22;10891;49.350;19.386;2022-08-04T14:43:46;29.20;85.40
21459;DHT22;10891;49.350;19.386;2022-08-04T14:46:14;29.30;83.00
21459;DHT22;10891;49.350;19.386;2022-08-04T14:49:06;29.40;82.70
21459;DHT22;10891;49.350;19.386;2022-08-04T14:51:36;29.40;81.50
21459;DHT22;10891;49.350;19.386;2022-08-04T14:54:04;29.60;82.70
21459;DHT22;10891;49.350;19.386;2022-08-04T14:56:31;29.80;82.70
21459;DHT22;10891;49.350;19.386;2022-08-04T14:59:00;29.80;82.20
21459;DHT22;10891;49.350;19.386;2022-08-04T15:01:28;29.70;79.80
21459;DHT22;10891;49.350;19.386;2022-08-04T15:03:56;29.90;80.00
21459;DHT22;10891;49.350;19.386;2022-08-04T15:06:27;30.10;81.50
21459;DHT22;10891;49.350;19.386;2022-08-04T15:09:00;29.90;82.20
21459;DHT22;10891;49.350;19.386;2022-08-04T15:11:27;29.80;83.50
21459;DHT22;10891;49.350;19.386;2022-08-04T15:13:55;29.40;83.00
21459;DHT22;10891;49.350;19.386;2022-08-04T15:16:25;29.30;84.00
21459;DHT22;10891;49.350;19.386;2022-08-04T15:18:52;29.20;83.90
21459;DHT22;10891;49.350;19.386;2022-08-04T15:21:20;29.10;85.40
21459;DHT22;10891;49.350;19.386;2022-08-04T15:23:48;29.10;85.60
21459;DHT22;10891;49.350;19.386;2022-08-04T15:26:18;28.90;84.40
21459;DHT22;10891;49.350;19.386;2022-08-04T15:28:51;29.40;85.80
21459;DHT22;10891;49.350;19.386;2022-08-04T15:31:22;29.70;83.10
21459;DHT22;10891;49.350;19.386;2022-08-04T15:33:50;29.90;84.00
21459;DHT22;10891;49.350;19.386;2022-08-04T15:36:25;30.60;81.40
21459;DHT22;10891;49.350;19.386;2022-08-04T15:39:00;31.20;80.40
21459;DHT22;10891;49.350;19.386;2022-08-04T15:41:34;31.20;79.00
21459;DHT22;10891;49.350;19.386;2022-08-04T15:47:14;31.00;78.30
21459;DHT22;10891;49.350;19.386;2022-08-04T15:49:42;31.00;79.80
21459;DHT22;10891;49.350;19.386;2022-08-04T15:52:11;30.60;80.80
21459;DHT22;10891;49.350;19.386;2022-08-04T15:54:42;30.30;80.50
21459;DHT22;10891;49.350;19.386;2022-08-04T15:57:09;30.30;81.40
21459;DHT22;10891;49.350;19.386;2022-08-04T16:00:03;30.50;81.10
21459;DHT22;10891;49.350;19.386;2022-08-04T16:02:41;30.10;80.80
21459;DHT22;10891;49.350;19.386;2022-08-04T16:05:38;29.60;81.10
21459;DHT22;10891;49.350;19.386;2022-08-04T16:08:11;29.00;83.00
21459;DHT22;10891;49.350;19.386;2022-08-04T16:10:42;28.60;84.10
21459;DHT22;10891;49.350;19.386;2022-08-04T16:13:11;28.30;84.80
21459;DHT22;10891;49.350;19.386;2022-08-04T16:15:44;28.00;86.00
21459;DHT22;10891;49.350;19.386;2022-08-04T16:18:17;27.90;86.50
21459;DHT22;10891;49.350;19.386;2022-08-04T16:20:46;27.90;86.90
21459;DHT22;10891;49.350;19.386;2022-08-04T16:23:33;27.80;87.40
21459;DHT22;10891;49.350;19.386;2022-08-04T16:26:06;27.70;87.80